Sunday, December 17, 2017, 4:34 PM EST
Back to Local

KZZV, Zanesville Municipal Airport

Location: Zanesville, OH, United States Lat: 39.95
Local Time: 4:34 PM EST (21:34 GMT) Lon: -81.9
Time Zone: US/Eastern Elev: 898 ft

Show me the last for .
Show Decoded

2017-12-17 15:53 METAR KZZV 172053Z AUTO 12003KT 10SM OVC085 04/01 A3013 RMK AO2 RAB00E09 SLP211
                 P0000 60000 T00440011 56002 =
2017-12-17 14:53 METAR KZZV 171953Z AUTO 00000KT 10SM FEW070 OVC090 04/01 A3014 RMK AO2
                 RAB1856E28 SLP214 P0000 T00440006 =
2017-12-17 13:53 METAR KZZV 171853Z AUTO 15003KT 10SM FEW060 OVC075 04/00 A3010 RMK AO2 RAB09E39
                 SLP202 P0000 T00440000 =
2017-12-17 12:53 METAR KZZV 171753Z AUTO 16005KT 10SM SCT070 OVC100 05/M02 A3014 RMK AO2 SLP212
                 T00501017 10050 21017 56022 =
2017-12-17 11:53 METAR KZZV 171653Z AUTO 17006KT 10SM SCT120 04/M02 A3015 RMK AO2 SLP218
                 T00441017 =
2017-12-17 10:53 METAR KZZV 171553Z AUTO 00000KT 10SM CLR 03/M02 A3019 RMK AO2 SLP231 T00281017 =
2017-12-17 09:53 METAR KZZV 171453Z AUTO 13003KT 10SM CLR 01/M02 A3020 RMK AO2 SLP236 T00061022
                 50005 =
2017-12-17 08:53 METAR KZZV 171353Z AUTO 00000KT 10SM CLR M01/M04 A3021 RMK AO2 PRESRR SLP241
                 T10061039 =
2017-12-17 07:53 METAR KZZV 171253Z AUTO 00000KT 10SM CLR M01/M04 A3018 RMK AO2 SLP229 T10111039
                 =
2017-12-17 06:53 METAR KZZV 171153Z AUTO 18003KT 10SM CLR M01/M04 A3019 RMK AO2 SLP229 T10111039
                 11006 21039 50006 =
2017-12-17 05:53 METAR KZZV 171053Z AUTO 00000KT 10SM CLR M02/M05 A3020 RMK AO2 SLP234 T10221050
                 =
2017-12-17 04:53 METAR KZZV 170953Z AUTO 00000KT 10SM CLR M02/M04 A3018 RMK AO2 SLP225 T10171044
                 =
2017-12-17 03:53 METAR KZZV 170853Z AUTO 18004KT 10SM CLR M03/M06 A3017 RMK AO2 SLP223 T10331056
                 50001 =
2017-12-17 02:53 METAR KZZV 170753Z AUTO 00000KT 10SM CLR M04/M06 A3019 RMK AO2 SLP229 T10391061
                 =
2017-12-17 01:53 METAR KZZV 170653Z AUTO 21004KT 10SM CLR M02/M05 A3018 RMK AO2 SLP226 T10221050
                 =
2017-12-17 00:53 METAR KZZV 170553Z AUTO 21003KT 10SM CLR M02/M05 A3017 RMK AO2 SLP222 T10221050
                 10050 21033 51010 =
2017-12-16 23:53 METAR KZZV 170453Z AUTO 21003KT 10SM CLR M03/M06 A3017 RMK AO2 SLP222 T10281056
                 400891033 =
2017-12-16 22:53 METAR KZZV 170353Z AUTO 00000KT 10SM CLR M02/M06 A3016 RMK AO2 SLP222 T10221056
                 =
2017-12-16 21:53 METAR KZZV 170253Z AUTO 00000KT 10SM CLR M01/M05 A3014 RMK AO2 SLP214 T10111050
                 51016 =
2017-12-16 20:53 METAR KZZV 170153Z AUTO 15004KT 10SM CLR M02/M06 A3012 RMK AO2 SLP208 T10171056
                 =
2017-12-16 19:53 METAR KZZV 170053Z AUTO 00000KT 10SM CLR 02/M04 A3011 RMK AO2 SLP205 T00221044 =
2017-12-16 18:53 METAR KZZV 162353Z AUTO 00000KT 10SM CLR 05/M04 A3009 RMK AO2 SLP196 T00501039
                 10089 20044 53021 =
2017-12-16 17:53 METAR KZZV 162253Z AUTO 20005KT 10SM CLR 04/M04 A3006 RMK AO2 SLP186 T00441039 =
2017-12-16 16:53 METAR KZZV 162153Z AUTO 20007KT 10SM CLR 08/M04 A3005 RMK AO2 SLP179 T00781039 =

Support USWX by starting your Amazon purchase here.